Eagle, NE

3:11 AM CDT on August 26, 2019 (GMT -0500)
129th | | Change Station
Active Advisory: Flood Warning

Elev 1296 ft 40.83 °N, 96.55 °W | Updated 7 seconds ago

Overcast
Overcast
65.5 °F
Feels Like 65.5 °F
N
8
Wind Variable Wind from SSE
Gusts 11.0 mph

Today
High -- | Low -- °F
--% Chance of Precip.
Yesterday
High -- | Low -- °F
Precip. -- in
Pressure 29.74 in
Visibility 10.0 miles
Clouds Overcast 700 ft
Dew Point 63 °F
Humidity 92%
Rainfall 0.00 in
Snow Depth Not available.
6:46 AM 8:07 PM
Waning Crescent, 22% visible
METAR KLNK 260754Z AUTO 16011KT 10SM OVC007 19/17 A2976 RMK AO2 SLP070 T01890172
Pressure 29.74 in
Visibility 10.0 miles
Clouds Overcast 700 ft
Dew Point 63 °F
Humidity 92%
Rainfall 0.00 in
Snow Depth Not available.
6:46 AM 8:07 PM
Waning Crescent, 22% visible
METAR KLNK 260754Z AUTO 16011KT 10SM OVC007 19/17 A2976 RMK AO2 SLP070 T01890172

Get Your Daily Forecast Email!

Thanks for signing up!

Be on the lookout for a verification email in your inbox.

You'll start receiving severe weather alerts in your inbox..

×

10-Day Weather Forecast

Almanac

Astronomy

Aug. 26, 2019 Rise Set
Actual Time
Civil Twilight
Nautical Twilight
Astronomical Twilight
Moon
Length of Visible Light
Length of Day
Tomorrow will be .
, % of the Moon is Illuminated

Today's Extremes

State Highs State Lows

Community

WunderPhotos

Category 6

Welcome to Category 6. This is the collective home for Weather Underground's featured writeups by Dr. Jeff Masters (right), Bob Henson (left), Chris Burt, and other regular contributors.

Nearby

Air Quality

  Air Quality AQ Index Pollutant
Not available.

Snow Depth

Station Depth Elevation

Earthquake Activity

City Distance Mag. Time & Date
Minimum magnitude displayed is 2.5.

Coastal Water Temperatures

Place Temperature

Stations

Nearby Weather Stations

Station Location Temp. Windchill Dew Point Humidity Wind Precip. Elev Updated Type
                   

Watches & Warnings

Flood Warning
Issued: 9:33 PM CDT Aug. 25, 2019 – National Weather Service

The Flood Warning continues for
the Missouri River at Plattsmouth.
* At 9:15 PM Sunday the stage was 26.5 feet... or 0.5 feet above
flood stage.
* Flood stage is 26.0 feet.
* Minor flooding is occurring and minor flooding is forecast.



Lat... Lon 4106 9591 4107 9574 4078 9572 4078 9587
      4092 9585